• Join FlightAware (Why Join?)
  • Login
  • US Flag 
03:51PM EDT


 

Airport Tracker/Info


-or-


 

Live Flight TrackerFlight Track Log ✈ N310VP ✈ 04-Aug-2013 ✈ KJHW - KOSU

Flight Track Log - Related Links

Times and Time Zones

All times are in EDT time to prevent confusion due to time zone crossing. See the N310VP flight status page for this flight to view local times or setup timezone preferences in your user account.

Time Position Orientation Groundspeed Altitude Reporting Facility
EDT Latitude Longitude Course Direction KTS MPH feet Rate Location/Type
05:09PM 41.9990 -79.5352 234° Southwest  Level FlightAware Approximate
05:10PM 41.9732 -79.5824 234° Southwest  Level FlightAware Approximate
05:11PM 41.9473 -79.6295 234° Southwest  Level FlightAware Approximate
05:12PM 41.9215 -79.6766 234° Southwest  Level FlightAware Approximate
05:13PM 41.8956 -79.7237 234° Southwest  Level FlightAware Approximate
05:14PM 41.8697 -79.7707 234° Southwest  Level FlightAware Approximate
05:15PM 41.8438 -79.8177 233° Southwest  Level FlightAware Approximate
05:16PM 41.8178 -79.8646 233° Southwest  Level FlightAware Approximate
05:17PM 41.7919 -79.9116 233° Southwest  Level FlightAware Approximate
05:18PM 41.7659 -79.9584 233° Southwest  Level FlightAware Approximate
05:19PM 41.7399 -80.0053 233° Southwest  Level FlightAware Approximate
05:20PM 41.7139 -80.0521 233° Southwest  Level FlightAware Approximate
05:21PM 41.6879 -80.0988 233° Southwest  Level FlightAware Approximate
05:22PM 41.6618 -80.1456 233° Southwest  Level FlightAware Approximate
05:23PM 41.6362 -80.1927 235° Southwest  Level FlightAware Approximate
05:24PM 41.6111 -80.2403 235° Southwest  Level FlightAware Approximate
05:25PM 41.5860 -80.2879 235° Southwest  Level FlightAware Approximate
05:26PM 41.5609 -80.3354 235° Southwest  Level FlightAware Approximate
05:27PM 41.5357 -80.3829 235° Southwest  Level FlightAware Approximate
05:28PM 41.5105 -80.4304 235° Southwest  Level FlightAware Approximate
05:29PM 41.4853 -80.4778 235° Southwest  Level FlightAware Approximate
05:30PM 41.4601 -80.5251 235° Southwest  Level FlightAware Approximate
05:31PM 41.4348 -80.5725 235° Southwest  Level FlightAware Approximate
05:32PM 41.4095 -80.6198 235° Southwest  Level FlightAware Approximate
05:33PM 41.3843 -80.6670 235° Southwest  Level FlightAware Approximate
05:34PM 41.3589 -80.7142 234° Southwest  Level FlightAware Approximate
05:35PM 41.3336 -80.7614 234° Southwest  Level FlightAware Approximate
05:36PM 41.3066 -80.8117 234° Southwest  Level FlightAware Approximate
05:37PM 41.2795 -80.8620 234° Southwest  Level FlightAware Approximate
05:38PM 41.2524 -80.9122 234° Southwest  Level FlightAware Approximate
05:38PM 41.1047 -81.2117 231° Southwest 170 196 8,100  Level Indianapolis Center
05:39PM 41.2244 -80.9615 233° Southwest  Level FlightAware Approximate
05:39PM 41.0764 -81.2622 233° Southwest 169 194 8,100  Level Indianapolis Center
05:40PM 41.1963 -81.0107 233° Southwest  Level FlightAware Approximate
05:40PM 41.0478 -81.3133 233° Southwest 170 196 8,100  Level Indianapolis Center
05:41PM 41.1695 -81.0611 236° Southwest  Level FlightAware Approximate
05:42PM 41.0186 -81.3628 232° Southwest 170 196 8,100  Level Indianapolis Center
05:42PM 41.1438 -81.1125 236° Southwest  Level FlightAware Approximate
05:43PM 41.1181 -81.1638 236° Southwest  Level FlightAware Approximate
05:43PM 40.9892 -81.4133 232° Southwest 170 196 8,100  Level Indianapolis Center
05:44PM 41.0914 -81.2142 231° Southwest  Level FlightAware Approximate
05:44PM 40.9603 -81.4650 233° Southwest 172 198 8,100  Level Indianapolis Center
05:45PM 40.9264 -81.5233 232° Southwest 171 197 8,100  Level Indianapolis Center
05:46PM 40.8969 -81.5736 232° Southwest 170 196 8,100  Level Indianapolis Center
05:47PM 40.8686 -81.6250 234° Southwest 171 197 8,100  Level Indianapolis Center
05:48PM 40.8389 -81.6739 231° Southwest 170 196 8,100  Level Indianapolis Center
05:49PM 40.8106 -81.7231 233° Southwest 168 193 8,100  Level Indianapolis Center
05:50PM 40.7817 -81.7731 233° Southwest 168 193 8,100  Level Indianapolis Center
05:51PM 40.7458 -81.8133 220° Southwest 169 194 8,100  Level Indianapolis Center
05:52PM 40.7081 -81.8539 219° Southwest 170 196 8,100  Level Indianapolis Center
05:53PM 40.6650 -81.9011 220° Southwest 171 197 8,100  Level Indianapolis Center
05:54PM 40.6272 -81.9428 220° Southwest 173 199 8,100  Level Indianapolis Center
05:55PM 40.5908 -81.9894 224° Southwest 176 203 8,100  Level Indianapolis Center
05:56PM 40.5539 -82.0325 222° Southwest 177 204 8,100  Level Indianapolis Center
05:57PM 40.5144 -82.0664 213° Southwest 173 199 8,100  Level Indianapolis Center
05:58PM 40.4767 -82.1058 218° Southwest 171 197 8,100  Level Indianapolis Center
05:59PM 40.4467 -82.1578 233° Southwest 175 201 8,100  Level Indianapolis Center
06:00PM 40.4289 -82.2169 248° West 176 203 8,100  Level Indianapolis Center
06:01PM 40.4006 -82.2800 239° Southwest 172 198 8,100  Level Indianapolis Center
06:02PM 40.3786 -82.3344 242° Southwest 167 192 8,100  Level Indianapolis Center
06:03PM 40.3564 -82.3906 243° Southwest 170 196 8,100  Level Indianapolis Center
06:04PM 40.3344 -82.4464 243° Southwest 171 197 8,100 -240 Level Indianapolis Center
06:06PM 40.3025 -82.5247 242° Southwest 173 199 7,600 -540 Descending Indianapolis Center
06:06PM 40.2864 -82.5600 239° Southwest 176 203 7,100 -780 Descending Indianapolis Center
06:07PM 40.2650 -82.6181 244° Southwest 177 204 6,300 -780 Descending Indianapolis Center
06:08PM 40.2428 -82.6747 243° Southwest 175 201 5,500 -840 Descending Indianapolis Center
06:09PM 40.2203 -82.7322 243° Southwest 175 201 4,600 -780 Descending Indianapolis Center
06:10PM 40.1908 -82.8006 241° Southwest 174 200 4,000 -600 Descending Indianapolis Center
06:11PM 40.1694 -82.8519 241° Southwest 162 186 3,500 -480 Descending Indianapolis Center
06:13PM 40.1419 -82.9186 242° Southwest 170 196 3,000 -420 Descending Indianapolis Center
06:14PM 40.1125 -82.9631 229° Southwest 161 185 2,600 -360 Descending Indianapolis Center
06:15PM 40.0883 -82.9975 227° Southwest 113 130 2,300 -480 Descending Indianapolis Center
06:16PM 40.0789 -83.0317 250° West 99 114 1,700 -600 Descending Indianapolis Center
06:18PM 40.0667 -83.0667 237° Southwest  Level FlightAware Approximate
06:25PM 40.0798 -83.0732 237° Southwest  Level Estimated